Time;durP1;ratioP1;P1;durP2;ratioP2;P2;SDS_P1;SDS_P2;PMS_P1;PMS_P2;Temp;Humidity;BMP_temperature;BMP_pressure;BME280_temperature;BME280_humidity;BME280_pressure;Samples;Min_cycle;Max_cycle;Signal;HPM_P1;HPM_P2
2022/06/07 00:00:45;;;;;;;1.70;1.20;;;16.90;99.90;;;16.60;78.13;97237.06;5028029;28;20033;-49
2022/06/07 00:03:12;;;;;;;2.50;1.10;;;16.80;99.90;;;16.57;78.25;97231.91;5024188;28;20034;-46
2022/06/07 00:05:41;;;;;;;2.13;1.20;;;16.80;99.90;;;16.56;77.96;97227.56;5028924;28;20033;-50
2022/06/07 00:08:07;;;;;;;1.40;1.10;;;16.80;99.90;;;16.55;77.97;97243.63;5027457;28;20028;-47
2022/06/07 00:10:33;;;;;;;1.30;0.88;;;16.80;99.90;;;16.52;78.21;97238.50;5027172;28;20215;-47
2022/06/07 00:12:59;;;;;;;1.50;1.00;;;16.80;99.90;;;16.53;77.26;97243.72;5027604;28;20099;-48
2022/06/07 00:15:25;;;;;;;1.50;0.98;;;16.80;99.90;;;16.53;77.68;97238.41;5024246;28;20385;-47
2022/06/07 00:17:50;;;;;;;1.00;0.90;;;16.80;99.90;;;16.50;78.30;97235.06;5026618;28;20057;-49
2022/06/07 00:20:16;;;;;;;1.08;0.90;;;16.70;99.90;;;16.47;79.23;97238.78;5024631;28;20512;-47
2022/06/07 00:22:42;;;;;;;1.33;1.00;;;16.70;99.90;;;16.44;77.32;97232.78;5025035;28;20033;-46
2022/06/07 00:25:11;;;;;;;4.10;1.08;;;16.70;99.90;;;16.43;78.28;97237.25;5026858;28;20072;-48
2022/06/07 00:27:37;;;;;;;1.92;1.08;;;16.70;99.90;;;16.40;77.03;97240.09;5027150;28;20033;-49
2022/06/07 00:30:05;;;;;;;2.53;0.88;;;16.70;99.90;;;16.40;78.54;97243.66;5027303;28;20476;-46
2022/06/07 00:32:32;;;;;;;3.25;1.20;;;16.60;99.90;;;16.38;78.85;97240.22;5026121;28;20486;-49
2022/06/07 00:34:57;;;;;;;1.38;1.00;;;16.60;99.90;;;16.37;78.10;97248.31;5042739;28;20060;-49
2022/06/07 00:37:23;;;;;;;2.83;0.95;;;16.60;99.90;;;16.34;81.10;97248.50;5026202;28;20462;-48
2022/06/07 00:39:49;;;;;;;1.48;0.93;;;16.60;99.90;;;16.29;80.87;97247.91;5027031;28;20029;-51
2022/06/07 00:42:15;;;;;;;2.30;1.20;;;16.50;99.90;;;16.26;81.59;97253.41;5026677;28;20029;-45
2022/06/07 00:44:44;;;;;;;1.38;0.95;;;16.50;99.90;;;16.23;79.18;97252.66;5022233;28;20065;-47
2022/06/07 00:47:23;;;;;;;1.40;0.90;;;16.50;99.90;;;16.19;78.79;97239.66;5026209;28;20033;-47
2022/06/07 00:49:55;;;;;;;1.15;0.80;;;16.40;99.90;;;16.17;80.82;97237.09;5027509;28;20108;-46
2022/06/07 00:52:23;;;;;;;;;;;16.40;99.90;;;16.11;85.94;97245.44;5025704;28;20532;-48
2022/06/07 00:54:49;;;;;;;2.05;1.20;;;16.40;99.90;;;16.06;86.55;97236.91;5022137;28;19909;-45
2022/06/07 00:57:15;;;;;;;2.25;1.10;;;16.30;99.90;;;16.00;82.72;97239.94;5026325;28;20021;-48
2022/06/07 00:59:41;;;;;;;1.45;0.90;;;16.30;99.90;;;15.96;85.41;97238.41;5030600;28;20523;-46
2022/06/07 01:02:07;;;;;;;4.53;0.80;;;16.20;99.90;;;15.93;81.96;97246.59;5021310;28;20052;-48
2022/06/07 01:04:34;;;;;;;1.73;0.85;;;16.20;99.90;;;15.92;80.63;97248.38;5029609;28;20075;-47
2022/06/07 01:12:29;;;;;;;4.25;1.00;;;16.20;99.90;;;15.86;83.42;97240.78;5024630;28;20160;-47
2022/06/07 01:14:54;;;;;;;1.05;0.90;;;16.10;99.90;;;15.79;85.69;97237.66;5026117;28;20215;-46
2022/06/07 01:17:20;;;;;;;1.75;0.93;;;16.10;99.90;;;15.72;87.46;97225.66;5026001;28;20041;-48
2022/06/07 01:19:47;;;;;;;1.20;1.10;;;16.00;99.90;;;15.66;87.76;97232.16;5020663;28;20517;-47
2022/06/07 01:22:13;;;;;;;1.90;0.70;;;15.90;99.90;;;15.63;85.90;97237.69;5025373;28;20060;-45
2022/06/07 01:24:40;;;;;;;1.65;0.82;;;15.90;99.90;;;15.60;85.92;97240.50;5028185;28;20026;-51
2022/06/07 01:27:07;;;;;;;1.00;0.88;;;15.90;99.90;;;15.57;87.17;97231.88;5026139;28;20034;-47
2022/06/07 01:29:34;;;;;;;1.23;0.75;;;15.90;99.90;;;15.52;87.09;97236.59;5026930;28;20540;-47
2022/06/07 01:32:00;;;;;;;0.80;0.75;;;15.80;99.90;;;15.46;88.22;97237.81;5024596;28;20171;-45
2022/06/07 01:34:26;;;;;;;1.08;0.80;;;15.70;99.90;;;15.44;88.63;97231.75;5022140;28;20465;-48
2022/06/07 01:36:55;;;;;;;1.58;0.90;;;15.70;99.90;;;15.38;90.60;97238.28;5026525;28;20489;-46
2022/06/07 01:42:08;;;;;;;1.48;0.90;;;15.60;99.90;;;15.30;92.29;97231.72;5026814;28;20522;-47
2022/06/07 01:44:44;;;;;;;1.25;0.80;;;15.60;99.90;;;15.25;92.76;97230.19;5022945;28;20473;-45
2022/06/07 01:47:15;;;;;;;0.80;0.80;;;15.60;99.90;;;15.22;93.69;97230.34;5021225;28;20052;-48
2022/06/07 01:49:42;;;;;;;1.65;1.00;;;15.50;99.90;;;15.15;93.68;97221.03;5019620;28;20025;-46
2022/06/07 01:52:09;;;;;;;1.80;0.85;;;15.50;99.90;;;15.12;96.07;97229.16;5025600;28;20025;-49
2022/06/07 01:54:35;;;;;;;1.55;0.70;;;15.40;99.90;;;15.06;97.68;97227.72;5022854;28;20114;-47
2022/06/07 01:57:01;;;;;;;2.05;0.73;;;15.40;99.90;;;15.00;98.62;97222.78;5026726;28;20502;-48
2022/06/07 01:59:27;;;;;;;1.00;0.90;;;15.30;99.90;;;14.98;100.00;97229.09;5027852;28;20035;-46
2022/06/07 02:01:53;;;;;;;2.53;0.88;;;15.20;99.90;;;14.86;100.00;97214.75;5023856;28;20051;-46
2022/06/07 02:04:21;;;;;;;1.45;0.93;;;15.20;99.90;;;14.85;100.00;97221.84;5020192;28;20125;-45
2022/06/07 02:06:47;;;;;;;1.17;1.00;;;15.10;99.90;;;14.74;100.00;97200.38;5027967;28;20112;-45
2022/06/07 02:09:13;;;;;;;3.70;1.02;;;15.10;99.90;;;14.71;100.00;97216.47;5025255;28;20112;-44
2022/06/07 02:11:40;;;;;;;1.10;0.90;;;15.10;99.90;;;14.62;100.00;97212.53;5025590;28;20045;-46
2022/06/07 02:14:07;;;;;;;1.13;0.90;;;15.00;99.90;;;14.55;100.00;97202.31;5023072;28;20500;-46
2022/06/07 02:16:33;;;;;;;1.60;1.00;;;14.90;99.90;;;14.52;100.00;97213.97;5025220;28;20025;-46
2022/06/07 02:18:59;;;;;;;2.00;1.10;;;14.80;99.90;;;14.45;100.00;97210.78;5026166;28;20068;-46
2022/06/07 02:21:26;;;;;;;3.53;0.98;;;14.80;99.90;;;14.36;100.00;97202.50;5026175;28;20056;-48
2022/06/07 02:23:51;;;;;;;0.85;0.82;;;14.70;99.90;;;14.36;100.00;97202.50;5025907;28;20517;-48
2022/06/07 02:26:21;;;;;;;0.80;0.60;;;14.70;99.90;;;14.33;100.00;97191.09;5025455;28;20064;-47
2022/06/07 02:29:14;;;;;;;1.00;0.90;;;14.60;99.90;;;14.31;100.00;97192.97;5022144;28;20030;-46
2022/06/07 02:31:47;;;;;;;2.10;0.82;;;14.60;99.90;;;14.30;100.00;97195.72;5017750;28;20148;-47
2022/06/07 02:34:15;;;;;;;1.98;0.98;;;14.60;99.90;;;14.29;100.00;97191.38;5040299;28;20044;-47
2022/06/07 02:36:43;;;;;;;1.70;1.00;;;14.60;99.90;;;14.28;100.00;97198.47;5024622;28;20311;-49
2022/06/07 02:39:09;;;;;;;1.10;0.80;;;14.60;99.90;;;14.30;100.00;97195.72;5026177;28;20033;-45
2022/06/07 02:41:35;;;;;;;1.45;0.90;;;14.60;99.90;;;14.29;100.00;97186.91;5022670;28;20030;-46
2022/06/07 02:44:01;;;;;;;1.73;1.00;;;14.60;99.90;;;14.31;100.00;97181.53;5022584;28;20034;-48
2022/06/07 02:46:27;;;;;;;2.60;1.02;;;14.60;99.90;;;14.32;100.00;97175.28;5023621;28;20045;-46
2022/06/07 02:48:53;;;;;;;1.35;1.05;;;14.60;99.90;;;14.32;100.00;97173.47;5026545;28;20576;-45
2022/06/07 02:51:19;;;;;;;1.08;0.82;;;14.60;99.90;;;14.33;100.00;97163.72;5026926;28;20112;-44
2022/06/07 02:53:45;;;;;;;1.08;0.95;;;14.60;99.90;;;14.34;100.00;97160.13;5024445;28;20036;-47
2022/06/07 02:56:11;;;;;;;0.70;0.70;;;14.60;99.90;;;14.34;100.00;97170.75;5022996;28;20025;-48
2022/06/07 02:58:37;;;;;;;1.30;0.95;;;14.60;99.90;;;14.33;100.00;97159.25;5029730;28;20064;-47
2022/06/07 03:01:02;;;;;;;1.40;0.85;;;14.60;99.90;;;14.35;100.00;97163.63;5031614;28;20028;-45
2022/06/07 03:03:28;;;;;;;2.15;1.20;;;14.60;99.90;;;14.36;100.00;97163.56;5029998;28;20036;-47
2022/06/07 03:05:55;;;;;;;3.78;0.90;;;14.60;99.90;;;14.36;100.00;97165.38;5030226;28;20068;-47
2022/06/07 03:08:23;;;;;;;1.10;1.00;;;14.60;99.90;;;14.37;100.00;97161.75;5028817;28;20037;-47
2022/06/07 03:10:49;;;;;;;1.63;0.88;;;14.60;99.90;;;14.36;100.00;97170.66;5027759;28;20033;-46
2022/06/07 03:13:16;;;;;;;1.60;1.10;;;14.60;99.90;;;14.34;100.00;97168.09;5028430;28;20044;-47
2022/06/07 03:15:43;;;;;;;2.45;0.90;;;14.60;99.90;;;14.36;100.00;97170.66;5028333;28;20029;-46
2022/06/07 03:18:10;;;;;;;1.02;0.90;;;14.70;99.90;;;14.36;100.00;97175.97;5022435;28;20049;-46
2022/06/07 03:20:37;;;;;;;1.05;0.90;;;14.60;99.90;;;14.35;100.00;97172.44;5028153;28;20025;-47
2022/06/07 03:23:04;;;;;;;1.10;1.00;;;14.60;99.90;;;14.37;100.00;97180.31;5029156;28;20042;-45
2022/06/07 03:25:30;;;;;;;3.13;1.20;;;14.60;99.90;;;14.35;100.00;97168.94;5026553;28;20508;-48
2022/06/07 03:27:56;;;;;;;3.45;1.00;;;14.70;99.90;;;14.32;100.00;97165.53;5028591;28;20095;-45
2022/06/07 03:30:22;;;;;;;1.55;0.85;;;14.60;99.90;;;14.27;100.00;97167.56;5028668;28;20274;-48
2022/06/07 03:32:47;;;;;;;3.63;0.77;;;14.60;99.90;;;14.29;100.00;97168.34;5042971;22;20042;-42
2022/06/07 03:35:15;;;;;;;0.93;0.90;;;14.60;99.90;;;14.29;100.00;97168.34;5024303;28;20022;-43
2022/06/07 03:37:41;;;;;;;1.80;0.77;;;14.60;99.90;;;14.31;100.00;97168.25;5026363;28;20716;-42
2022/06/07 03:40:11;;;;;;;0.77;0.70;;;14.60;99.90;;;14.33;100.00;97164.56;5032092;28;20037;-43
2022/06/07 03:42:37;;;;;;;1.63;1.05;;;14.60;99.90;;;14.36;100.00;97165.38;5017925;28;20037;-43
2022/06/07 03:45:04;;;;;;;3.58;0.80;;;14.60;99.90;;;14.37;100.00;97170.56;5009098;28;20038;-43
2022/06/07 03:47:30;;;;;;;1.05;0.70;;;14.60;99.90;;;14.38;100.00;97160.81;5011568;28;20030;-43
2022/06/07 03:49:56;;;;;;;0.60;0.60;;;14.70;99.90;;;14.44;100.00;97160.47;5012576;28;20097;-42
2022/06/07 03:52:22;;;;;;;1.40;0.75;;;14.70;99.90;;;14.44;100.00;97166.63;5009212;28;20026;-42
2022/06/07 03:54:49;;;;;;;1.27;0.70;;;14.80;99.90;;;14.48;100.00;97168.19;5009814;28;20021;-42
2022/06/07 03:57:16;;;;;;;1.73;0.80;;;14.80;99.90;;;14.55;100.00;97176.63;5009314;28;20544;-44
2022/06/07 03:59:42;;;;;;;1.20;0.70;;;14.90;99.90;;;14.55;100.00;97166.00;5013627;28;20507;-42
2022/06/07 04:02:09;;;;;;;0.90;0.80;;;14.90;99.90;;;14.61;100.00;97162.22;5008545;28;20030;-42
2022/06/07 04:04:36;;;;;;;1.80;1.15;;;14.90;99.90;;;14.64;100.00;97165.53;5012534;28;20036;-43
2022/06/07 04:09:47;;;;;;;0.88;0.70;;;15.00;99.90;;;14.72;100.00;97172.22;5015383;28;20401;-41
2022/06/07 04:12:16;;;;;;;0.75;0.60;;;15.00;99.90;;;14.72;100.00;97173.06;5005268;28;20026;-42
2022/06/07 04:14:44;;;;;;;1.35;0.55;;;15.00;99.90;;;14.72;100.00;97175.72;5007421;28;20095;-42
2022/06/07 04:17:11;;;;;;;2.03;0.70;;;15.00;99.90;;;14.70;100.00;97169.66;5009530;28;20052;-42
2022/06/07 04:19:38;;;;;;;0.68;0.68;;;15.00;99.90;;;14.73;100.00;97173.91;5011750;28;20474;-43
2022/06/07 04:22:05;;;;;;;0.80;0.80;;;15.00;99.90;;;14.73;100.00;97176.56;5011499;28;20517;-42
2022/06/07 04:24:32;;;;;;;1.25;0.77;;;15.00;99.90;;;14.73;100.00;97173.91;5006044;28;20049;-42
2022/06/07 04:26:58;;;;;;;1.33;0.55;;;15.00;99.90;;;14.74;100.00;97180.94;5013464;28;20398;-42
2022/06/07 04:29:25;;;;;;;0.95;0.60;;;15.00;99.90;;;14.73;100.00;97176.56;5010808;28;20033;-42
2022/06/07 04:31:51;;;;;;;1.38;0.70;;;15.00;99.90;;;14.74;100.00;97179.13;5025696;28;21238;-43
2022/06/07 04:34:18;;;;;;;1.38;0.70;;;15.00;99.90;;;14.77;100.00;97188.72;5010525;28;20022;-42
2022/06/07 04:36:45;;;;;;;0.70;0.70;;;15.10;99.90;;;14.77;100.00;97178.97;5010175;28;20026;-42
2022/06/07 04:39:11;;;;;;;1.13;0.90;;;15.10;99.90;;;14.80;100.00;97189.38;5012200;28;20030;-42
2022/06/07 04:41:37;;;;;;;0.88;0.80;;;15.10;99.90;;;14.79;100.00;97186.84;5010822;28;20132;-42
2022/06/07 04:44:04;;;;;;;0.88;0.77;;;15.10;99.90;;;14.79;100.00;97189.50;5007894;28;20030;-41
2022/06/07 04:46:30;;;;;;;3.95;0.90;;;15.10;99.90;;;14.79;100.00;97190.34;5008307;28;20029;-43
2022/06/07 04:48:56;;;;;;;2.67;1.10;;;15.10;99.90;;;14.80;100.00;97189.38;5009683;28;20120;-42
2022/06/07 04:51:29;;;;;;;0.98;0.70;;;15.10;99.90;;;14.81;100.00;97190.25;5012672;28;20104;-42
2022/06/07 04:53:57;;;;;;;1.25;0.70;;;15.10;99.90;;;14.83;100.00;97189.22;5006475;28;20018;-42
2022/06/07 04:56:27;;;;;;;0.50;0.50;;;15.10;99.90;;;14.86;100.00;97193.53;5023377;28;20044;-43
2022/06/07 04:58:54;;;;;;;1.30;0.80;;;15.10;99.90;;;14.88;100.00;97194.28;5025607;28;20100;-41
2022/06/07 05:01:33;;;;;;;1.02;0.80;;;15.20;99.90;;;14.93;100.00;97199.31;5009223;28;20053;-42
2022/06/07 05:03:58;;;;;;;2.08;0.95;;;15.20;99.90;;;14.96;100.00;97202.63;5021133;28;20485;-41
2022/06/07 05:06:28;;;;;;;0.90;0.75;;;15.20;99.90;;;15.02;100.00;97204.09;5010583;28;20040;-43
2022/06/07 05:09:00;;;;;;;0.80;0.60;;;15.30;99.90;;;15.07;99.90;97202.00;5022651;28;20030;-43
2022/06/07 05:11:27;;;;;;;1.65;0.90;;;15.30;99.90;;;15.14;99.38;97207.84;5006888;28;20021;-41
2022/06/07 05:13:55;;;;;;;3.20;1.27;;;15.40;99.90;;;15.09;97.85;97213.41;5007986;28;20036;-43
2022/06/07 05:16:22;;;;;;;0.63;0.60;;;15.40;99.90;;;15.14;97.12;97221.97;5010725;28;20013;-41
2022/06/07 05:18:50;;;;;;;1.35;0.70;;;15.40;99.90;;;15.13;97.07;97219.41;5007841;28;20026;-42
2022/06/07 05:21:17;;;;;;;1.02;0.70;;;15.40;99.90;;;15.06;97.12;97224.22;5023751;28;20033;-42
2022/06/07 05:23:43;;;;;;;1.58;0.90;;;15.40;99.90;;;15.05;97.00;97228.66;5008631;28;20049;-41
2022/06/07 05:26:19;;;;;;;3.03;0.93;;;15.40;99.90;;;15.09;96.56;97224.03;5009159;28;20052;-43
2022/06/07 05:28:44;;;;;;;0.73;0.60;;;15.40;99.90;;;15.13;96.40;97217.63;5011569;28;20423;-42
2022/06/07 05:31:10;;;;;;;0.77;0.70;;;15.40;99.90;;;15.21;96.38;97225.97;5008254;28;20026;-42
2022/06/07 05:33:36;;;;;;;2.60;0.82;;;15.50;99.90;;;15.35;96.06;97232.28;5011810;28;20133;-43
2022/06/07 05:36:03;;;;;;;1.65;0.70;;;15.60;99.90;;;15.53;95.19;97231.19;5009329;28;20030;-42
2022/06/07 05:38:29;;;;;;;1.52;0.95;;;15.80;99.90;;;15.65;93.76;97234.94;5008007;28;20503;-42
2022/06/07 05:40:55;;;;;;;3.00;0.80;;;15.90;99.90;;;15.74;93.69;97234.41;5005700;28;20091;-42
2022/06/07 05:43:21;;;;;;;1.45;0.90;;;16.00;99.90;;;15.86;92.86;97235.44;5007758;28;20055;-42
2022/06/07 05:45:49;;;;;;;1.38;0.80;;;16.10;99.90;;;16.03;92.77;97234.44;5008921;28;20080;-42
2022/06/07 05:48:15;;;;;;;1.67;0.90;;;16.30;99.90;;;16.19;90.15;97223.72;5004502;28;20040;-42
2022/06/07 05:50:50;;;;;;;2.15;0.90;;;16.40;99.90;;;16.38;88.87;97234.91;5004537;28;20081;-46
2022/06/07 05:53:17;;;;;;;2.72;0.85;;;16.60;99.90;;;16.56;88.17;97229.34;5007806;28;20501;-42
2022/06/07 05:55:43;;;;;;;1.10;0.75;;;16.70;99.90;;;16.74;87.30;97233.50;5008165;28;20072;-42
2022/06/07 05:58:09;;;;;;;3.05;0.90;;;16.90;99.90;;;16.86;86.47;97234.53;5011275;28;20432;-42
2022/06/07 06:00:37;;;;;;;1.02;0.90;;;17.00;99.90;;;16.97;86.12;97240.00;5006263;28;20098;-42
2022/06/07 06:03:03;;;;;;;0.85;0.80;;;17.10;99.90;;;17.13;85.72;97237.19;5006902;28;20037;-42
2022/06/07 06:05:29;;;;;;;1.00;0.90;;;17.30;99.90;;;17.31;84.10;97232.47;5006367;28;20691;-42
2022/06/07 06:10:39;;;;;;;1.58;1.08;;;17.60;99.90;;;17.53;80.54;97239.88;5004946;28;20068;-45
2022/06/07 06:13:05;;;;;;;3.33;0.90;;;17.70;99.90;;;17.61;80.02;97255.34;5007601;28;20382;-42
2022/06/07 06:15:32;;;;;;;3.28;0.95;;;17.80;99.90;;;17.56;77.61;97247.66;5006474;28;20018;-42
2022/06/07 06:18:01;;;;;;;1.67;1.00;;;17.80;99.90;;;17.70;78.30;97243.22;5006049;28;20042;-42
2022/06/07 06:20:27;;;;;;;1.75;0.73;;;17.90;99.90;;;17.80;78.83;97241.63;5004081;28;20076;-43
2022/06/07 06:22:53;;;;;;;3.30;0.90;;;17.90;99.90;;;17.87;78.39;97245.63;5005459;28;20286;-44
2022/06/07 06:25:19;;;;;;;2.45;0.90;;;18.00;99.90;;;17.91;77.86;97238.25;5005451;28;20517;-42
2022/06/07 06:27:44;;;;;;;1.27;0.82;;;18.00;99.90;;;17.84;79.14;97235.13;5009559;28;20035;-42
2022/06/07 06:30:11;;;;;;;1.67;0.80;;;18.00;99.90;;;17.86;78.26;97241.22;5011274;28;20290;-42
2022/06/07 06:32:37;;;;;;;1.38;0.75;;;18.00;99.90;;;17.85;79.06;97243.97;5009644;28;20029;-41
2022/06/07 06:35:04;;;;;;;1.77;0.80;;;18.00;99.90;;;17.80;78.79;97236.31;5009974;28;20033;-43
2022/06/07 06:37:31;;;;;;;1.38;1.00;;;18.00;99.90;;;17.90;79.89;97237.38;5010146;28;20022;-42
2022/06/07 06:39:56;;;;;;;1.02;0.70;;;18.00;99.90;;;17.90;80.98;97232.03;5008961;28;20229;-42
2022/06/07 06:42:22;;;;;;;1.52;0.90;;;18.00;99.90;;;17.88;82.46;97239.31;5008420;28;20477;-43
2022/06/07 06:44:48;;;;;;;3.13;0.88;;;18.00;99.90;;;17.91;80.78;97235.59;5010959;28;20091;-42
2022/06/07 06:47:14;;;;;;;1.77;0.80;;;18.10;99.90;;;17.98;76.77;97242.22;5012712;28;20112;-42
2022/06/07 06:49:41;;;;;;;2.28;0.70;;;18.20;99.90;;;17.98;77.76;97247.53;5008680;28;20022;-42
2022/06/07 06:52:09;;;;;;;1.15;0.80;;;18.20;99.90;;;18.02;77.63;97237.50;5010247;28;20022;-42
2022/06/07 06:54:36;;;;;;;2.38;0.70;;;18.20;99.90;;;18.15;79.15;97250.84;5008801;28;20018;-43
2022/06/07 06:57:04;;;;;;;0.85;0.75;;;18.30;99.90;;;18.17;76.26;97249.75;5010727;28;20088;-43
2022/06/07 06:59:31;;;;;;;1.75;0.70;;;18.30;99.90;;;18.35;76.46;97252.94;5012302;28;20029;-43
2022/06/07 07:01:57;;;;;;;1.08;0.65;;;18.50;99.90;;;18.62;76.26;97255.47;5006679;28;20053;-43
2022/06/07 07:04:23;;;;;;;3.15;0.80;;;18.80;99.90;;;18.92;73.39;97251.59;5013089;28;20022;-42
2022/06/07 07:06:49;;;;;;;1.27;0.70;;;19.10;99.90;;;19.05;69.18;97243.50;5007473;28;20026;-43
2022/06/07 07:09:18;;;;;;;1.50;0.70;;;19.40;99.90;;;19.37;76.65;97251.81;5007673;28;20030;-42
2022/06/07 07:11:48;;;;;;;1.55;0.80;;;19.60;99.90;;;19.56;71.04;97250.41;5009065;28;20025;-42
2022/06/07 07:14:14;;;;;;;0.98;0.77;;;19.90;99.90;;;19.65;67.84;97250.59;5018434;28;20014;-43
2022/06/07 07:16:44;;;;;;;1.23;0.70;;;20.00;99.90;;;19.57;63.84;97246.78;5003424;28;20108;-44
2022/06/07 07:19:12;;;;;;;2.05;0.90;;;20.10;99.90;;;19.50;68.17;97243.72;5006205;28;20116;-42
2022/06/07 07:21:41;;;;;;;1.30;0.70;;;19.90;99.90;;;19.40;65.46;97242.72;5014919;28;20545;-42
2022/06/07 07:24:15;;;;;;;1.88;0.80;;;19.90;99.90;;;19.45;70.35;97245.88;5010291;28;20037;-43
2022/06/07 07:26:45;;;;;;;2.13;0.82;;;19.90;99.90;;;19.45;64.36;97252.09;5009036;28;20131;-43
2022/06/07 07:29:14;;;;;;;1.67;0.70;;;19.90;99.90;;;19.40;64.11;97243.56;5008763;28;20022;-42
2022/06/07 07:31:40;;;;;;;4.22;0.88;;;19.70;99.90;;;19.62;66.68;97236.59;5008453;28;20022;-42
2022/06/07 07:34:10;;;;;;;1.45;0.60;;;19.80;99.90;;;20.00;67.84;97232.81;5009298;28;20022;-42
2022/06/07 07:36:42;;;;;;;1.35;0.80;;;20.10;99.90;;;20.30;63.29;97234.06;5004103;28;20053;-42
2022/06/07 07:39:08;;;;;;;2.17;0.85;;;20.50;99.90;;;20.41;59.32;97232.22;5009923;28;20029;-42
2022/06/07 07:41:37;;;;;;;1.58;0.80;;;20.70;99.90;;;20.47;60.68;97241.59;5007161;28;20041;-42
2022/06/07 07:44:06;;;;;;;1.50;0.70;;;20.80;99.90;;;20.58;57.54;97251.44;5008541;28;20026;-42
2022/06/07 07:46:35;;;;;;;1.88;0.75;;;20.80;99.90;;;20.62;57.07;97241.38;5008848;28;20033;-42
2022/06/07 07:49:02;;;;;;;2.55;0.80;;;20.90;99.90;;;20.57;58.40;97231.84;5007598;28;20129;-42
2022/06/07 07:51:32;;;;;;;1.35;0.57;;;20.80;99.90;;;20.47;62.70;97241.59;5008599;28;20018;-43
2022/06/07 07:54:00;;;;;;;0.45;0.45;;;20.70;99.90;;;20.27;61.78;97237.81;5011793;28;20171;-43
2022/06/07 07:56:27;;;;;;;2.10;0.75;;;20.50;99.90;;;20.36;56.61;97239.75;5014060;28;20013;-43
2022/06/07 07:58:55;;;;;;;0.90;0.52;;;20.60;99.90;;;20.67;57.63;97236.50;5010704;28;20030;-43
2022/06/07 08:01:24;;;;;;;1.85;0.70;;;20.90;99.90;;;20.78;58.25;97229.31;5004520;28;20025;-43
2022/06/07 08:03:51;;;;;;;1.85;0.80;;;21.00;99.90;;;20.79;63.99;97232.81;5009902;28;20162;-42
2022/06/07 08:06:20;;;;;;;0.88;0.60;;;21.00;99.90;;;20.65;59.94;97233.09;5009204;28;20390;-43
2022/06/07 08:08:50;;;;;;;1.05;0.70;;;20.90;99.90;;;20.33;58.60;97221.28;5011764;28;20029;-42
2022/06/07 08:11:18;;;;;;;0.90;0.65;;;20.70;99.90;;;20.54;67.21;97228.56;5003411;28;20025;-42
2022/06/07 08:13:44;;;;;;;0.82;0.68;;;20.80;99.90;;;20.66;57.96;97230.28;5023559;28;20034;-42
2022/06/07 08:16:11;;;;;;;0.73;0.43;;;21.00;99.90;;;20.96;56.19;97226.94;5000347;28;20025;-42
2022/06/07 08:18:38;;;;;;;2.40;0.60;;;21.20;99.90;;;21.14;50.86;97224.59;5010646;28;20262;-40
2022/06/07 08:21:09;;;;;;;1.05;0.70;;;21.50;97.60;;;21.47;52.24;97222.75;5007898;28;20076;-40
2022/06/07 08:23:36;;;;;;;3.45;0.90;;;21.70;97.90;;;21.78;56.13;97214.78;5007861;28;20056;-39
2022/06/07 08:26:04;;;;;;;2.53;0.70;;;22.00;99.40;;;21.85;54.60;97215.13;5010530;28;20044;-42
2022/06/07 08:28:31;;;;;;;1.95;0.60;;;22.10;99.00;;;21.84;57.33;97221.47;5008300;28;20033;-43
2022/06/07 08:30:58;;;;;;;2.47;0.70;;;22.00;99.80;;;21.64;59.48;97220.47;5009488;28;20029;-43
2022/06/07 08:38:56;;;;;;;2.55;0.90;;;21.30;99.90;;;20.90;61.91;97232.78;5011845;28;20512;-42
2022/06/07 08:41:33;;;;;;;1.88;0.60;;;21.10;99.90;;;20.67;61.40;97228.47;5012313;28;20033;-41
2022/06/07 08:44:05;;;;;;;1.17;0.63;;;20.90;99.90;;;20.43;61.75;97231.25;4998790;28;20028;-41
2022/06/07 08:46:34;;;;;;;1.15;0.70;;;20.60;99.90;;;20.00;57.68;97228.28;5005454;28;20036;-41
2022/06/07 08:49:01;;;;;;;1.08;0.65;;;20.30;99.70;;;19.88;59.93;97231.06;5010623;28;20045;-42
2022/06/07 08:51:31;;;;;;;1.27;0.70;;;20.10;99.90;;;19.78;59.04;97223.75;5011626;28;20022;-43
2022/06/07 08:54:00;;;;;;;1.73;0.70;;;20.00;99.90;;;19.66;56.97;97219.31;5007360;28;20026;-42
2022/06/07 08:56:32;;;;;;;0.60;0.60;;;19.90;99.90;;;19.88;55.42;97217.69;5006456;28;20442;-43
2022/06/07 08:59:09;;;;;;;0.60;0.60;;;20.10;99.00;;;20.27;55.24;97211.03;5010052;28;20104;-43
2022/06/07 09:02:12;;;;;;;2.10;0.73;;;20.40;99.10;;;20.56;55.68;97213.22;5006809;28;20025;-42
2022/06/07 09:04:39;;;;;;;3.00;1.27;;;20.70;99.00;;;20.40;52.27;97206.44;5006819;28;20025;-44
2022/06/07 09:07:18;;;;;;;2.33;0.95;;;20.70;97.30;;;20.51;53.12;97210.03;5009571;28;20095;-43
2022/06/07 09:12:37;;;;;;;1.70;0.80;;;20.60;98.70;;;20.30;59.69;97202.78;5006709;28;20029;-43
2022/06/07 09:15:11;;;;;;;1.52;0.60;;;20.50;99.90;;;20.16;63.34;97193.16;5006784;28;20029;-43
2022/06/07 09:17:48;;;;;;;1.70;0.70;;;20.30;99.90;;;20.24;64.47;97194.38;5004032;28;20034;-42
2022/06/07 09:20:23;;;;;;;5.40;0.95;;;20.40;99.90;;;20.24;60.10;97187.16;5009754;28;20063;-43
2022/06/07 09:22:54;;;;;;;0.60;0.60;;;20.50;99.90;;;20.31;55.40;97190.22;5008249;28;20037;-42
2022/06/07 09:25:39;;;;;;;3.97;0.68;;;20.50;98.80;;;20.36;53.88;97191.56;5011688;28;20040;-42
2022/06/07 09:28:14;;;;;;;0.65;0.52;;;20.50;98.40;;;20.31;54.99;97183.03;5009884;28;20030;-43
2022/06/07 09:30:45;;;;;;;1.27;0.60;;;20.50;98.40;;;20.35;55.82;97184.50;5022767;28;20018;-43
2022/06/07 09:33:34;;;;;;;0.68;0.60;;;20.50;98.10;;;20.33;56.36;97186.47;5011815;28;20030;-43
2022/06/07 09:36:24;;;;;;;1.05;0.70;;;20.50;98.70;;;20.06;56.21;97188.63;5009768;28;20490;-43
2022/06/07 09:38:57;;;;;;;0.90;0.63;;;20.40;98.40;;;19.88;56.97;97183.75;5022351;23;20580;-44
2022/06/07 09:41:36;;;;;;;0.50;0.50;;;20.10;98.70;;;19.98;58.31;97175.88;5010207;28;20351;-44
2022/06/07 09:44:27;;;;;;;1.98;0.85;;;20.20;99.40;;;20.39;55.62;97169.06;5039474;28;20029;-44
2022/06/07 09:47:06;;;;;;;1.70;0.85;;;20.70;98.90;;;21.09;57.83;97169.63;5022380;28;20018;-46
2022/06/07 09:49:48;;;;;;;0.88;0.55;;;21.30;99.00;;;21.68;51.34;97168.28;5020634;28;20089;-46
2022/06/07 09:52:27;;;;;;;3.00;0.70;;;21.90;98.00;;;22.02;50.51;97171.56;5001014;28;20113;-45
2022/06/07 09:55:05;;;;;;;0.85;0.50;;;22.20;96.10;;;22.15;48.16;97170.50;5001164;28;20030;-47
2022/06/07 09:57:49;;;;;;;1.13;0.60;;;22.30;94.80;;;22.02;55.96;97168.88;5017784;28;20030;-46
2022/06/07 10:00:31;;;;;;;1.75;1.23;;;22.20;97.20;;;21.92;53.53;97165.28;5013351;28;20026;-43
2022/06/07 10:03:31;;;;;;;0.80;0.60;;;22.10;97.90;;;21.90;53.52;97168.09;5017464;28;20065;-44
2022/06/07 10:06:32;;;;;;;0.77;0.63;;;22.10;96.70;;;21.93;53.26;97167.84;5000814;28;20478;-44
2022/06/07 10:09:08;;;;;;;0.90;0.65;;;22.10;96.50;;;21.87;51.72;97156.78;5001942;28;20414;-43
2022/06/07 10:12:23;;;;;;;1.02;0.57;;;22.20;96.20;;;22.02;49.68;97159.97;5024282;28;20041;-45
2022/06/07 10:15:19;;;;;;;1.48;0.45;;;22.30;95.30;;;22.44;49.06;97152.66;5003559;28;20504;-43
2022/06/07 10:18:03;;;;;;;1.40;0.60;;;22.60;93.80;;;22.96;47.65;97151.66;5005401;28;20224;-45
2022/06/07 10:20:50;;;;;;;1.60;0.50;;;23.20;93.70;;;22.96;44.11;97149.81;5023615;28;20026;-44
2022/06/07 10:23:54;;;;;;;1.05;0.73;;;23.40;90.90;;;22.90;42.24;97154.88;5006977;28;20030;-43
2022/06/07 10:26:36;;;;;;;0.95;0.55;;;23.20;89.30;;;22.74;42.86;97150.03;5007722;28;20489;-46
2022/06/07 10:29:31;;;;;;;0.63;0.57;;;23.00;89.10;;;22.63;44.96;97148.31;5004912;28;20088;-45
2022/06/07 10:32:09;;;;;;;1.58;0.73;;;22.80;89.90;;;22.37;45.46;97148.81;5019371;28;20089;-44
2022/06/07 10:34:46;;;;;;;0.90;0.55;;;22.70;90.50;;;22.31;45.21;97152.06;5001119;28;20029;-47
2022/06/07 10:37:37;;;;;;;0.52;0.50;;;22.50;90.80;;;22.20;47.50;97147.63;5004612;28;20057;-44
2022/06/07 10:40:19;;;;;;;0.93;0.60;;;22.50;91.70;;;22.29;49.06;97151.38;5008226;28;20471;-45
2022/06/07 10:42:59;;;;;;;1.38;0.63;;;22.60;92.60;;;22.60;48.51;97144.09;5010538;28;20474;-44
2022/06/07 10:45:32;;;;;;;0.80;0.60;;;22.90;93.00;;;23.06;47.58;97144.47;5008808;28;20030;-43
2022/06/07 10:48:24;;;;;;;0.80;0.60;;;23.30;92.30;;;23.44;47.52;97146.28;5002181;28;20034;-45
2022/06/07 10:54:05;;;;;;;2.60;0.85;;;23.90;93.80;;;23.58;48.06;97144.13;5003798;28;20044;-44